createdAt,value
2023-03-03T00:00:36.201Z,100493.75
2023-03-03T00:03:39.251Z,100501.19
2023-03-03T00:06:41.876Z,100488.19
2023-03-03T00:09:44.534Z,100499.72
2023-03-03T00:12:49.396Z,100491.44
2023-03-03T00:15:53.177Z,100490.66
2023-03-03T00:18:56.618Z,100493.56
2023-03-03T00:21:59.308Z,100491.72
2023-03-03T00:25:36.827Z,100489.09
2023-03-03T00:28:48.136Z,100489.28
2023-03-03T00:31:50.774Z,100493.56
2023-03-03T00:34:55.717Z,100487.00
2023-03-03T00:38:01.899Z,100469.94
2023-03-03T00:41:11.646Z,100486.47
2023-03-03T00:44:59.306Z,100475.59
2023-03-03T00:48:28.827Z,100459.84
2023-03-03T00:51:34.517Z,100473.88
2023-03-03T00:54:37.264Z,100463.25
2023-03-03T00:57:39.815Z,100469.25
2023-03-03T01:00:45.508Z,100475.50
2023-03-03T01:03:50.741Z,100460.41
2023-03-03T01:06:53.281Z,100452.78
2023-03-03T01:09:56.758Z,100455.72
2023-03-03T01:12:59.443Z,100454.09
2023-03-03T01:16:02.548Z,100439.81
2023-03-03T01:19:05.146Z,100450.44
2023-03-03T01:22:07.736Z,100440.94
2023-03-03T01:25:10.829Z,100442.38
2023-03-03T01:28:13.881Z,100437.28
2023-03-03T01:31:16.555Z,100441.66
2023-03-03T01:34:19.243Z,100433.91
2023-03-03T01:37:21.903Z,100424.31
2023-03-03T01:40:30.826Z,100413.22
2023-03-03T01:43:34.229Z,100440.72
2023-03-03T01:46:59.963Z,100438.91
2023-03-03T01:50:11.175Z,100427.75
2023-03-03T01:53:26.618Z,100431.28
2023-03-03T01:56:29.819Z,100436.38
2023-03-03T01:59:36.985Z,100428.75
2023-03-03T02:02:40.668Z,100427.56
2023-03-03T02:05:44.114Z,100429.41
2023-03-03T02:08:59.361Z,100430.75
2023-03-03T02:12:05.910Z,100430.13
2023-03-03T02:15:29.000Z,100425.84
2023-03-03T02:18:32.029Z,100398.50
2023-03-03T02:21:34.686Z,100424.66
2023-03-03T02:24:37.213Z,100419.38
2023-03-03T02:27:40.870Z,100417.41
2023-03-03T02:30:44.143Z,100408.84
2023-03-03T02:33:49.349Z,100408.22
2023-03-03T02:36:52.332Z,100413.13
2023-03-03T02:39:54.954Z,100402.97
2023-03-03T02:42:58.515Z,100401.31
2023-03-03T02:46:01.170Z,100409.66
2023-03-03T02:49:05.258Z,100396.88
2023-03-03T02:52:12.548Z,100402.50
2023-03-03T02:55:17.555Z,100399.78
2023-03-03T02:58:20.299Z,100401.59
2023-03-03T03:01:23.323Z,100377.22
2023-03-03T03:04:28.819Z,100386.59
2023-03-03T03:07:31.751Z,100365.97
2023-03-03T03:10:34.479Z,100387.97
2023-03-03T03:13:37.611Z,100387.50
2023-03-03T03:16:41.414Z,100383.59
2023-03-03T03:19:44.069Z,100385.75
2023-03-03T03:22:47.409Z,100382.31
2023-03-03T03:25:50.068Z,100378.03
2023-03-03T03:29:04.311Z,100372.13
2023-03-03T03:32:07.525Z,100362.66
2023-03-03T03:35:11.591Z,100371.66
2023-03-03T03:38:15.062Z,100370.59
2023-03-03T03:41:18.571Z,100376.78
2023-03-03T03:44:24.008Z,100370.59
2023-03-03T03:47:26.744Z,100370.13
2023-03-03T03:50:30.908Z,100360.31
2023-03-03T03:53:33.540Z,100362.41
2023-03-03T03:56:36.372Z,100362.78
2023-03-03T03:59:39.450Z,100358.06
2023-03-03T04:02:42.669Z,100363.31
2023-03-03T04:05:49.316Z,100352.63
2023-03-03T04:08:51.952Z,100353.25
2023-03-03T04:11:57.306Z,100358.34
2023-03-03T04:15:00.583Z,100365.25
2023-03-03T04:18:04.423Z,100364.78
2023-03-03T04:21:07.058Z,100361.34
2023-03-03T04:24:10.028Z,100361.44
2023-03-03T04:27:15.535Z,100363.44
2023-03-03T04:30:18.887Z,100347.09
2023-03-03T04:33:24.261Z,100363.16
2023-03-03T04:36:26.975Z,100366.09
2023-03-03T04:39:29.699Z,100356.09
2023-03-03T04:42:33.629Z,100365.88
2023-03-03T04:45:36.897Z,100372.34
2023-03-03T04:48:39.994Z,100371.53
2023-03-03T04:51:42.578Z,100371.34
2023-03-03T04:54:45.597Z,100364.28
2023-03-03T04:57:48.213Z,100371.34
2023-03-03T05:00:55.579Z,100364.50
2023-03-03T05:03:59.202Z,100377.59
2023-03-03T05:07:02.075Z,100372.97
2023-03-03T05:10:05.387Z,100373.59
2023-03-03T05:13:09.290Z,100372.34
2023-03-03T05:16:12.010Z,100351.09
2023-03-03T05:19:14.894Z,100368.19
2023-03-03T05:22:17.627Z,100387.31
2023-03-03T05:25:21.664Z,100372.91
2023-03-03T05:28:24.185Z,100376.06
2023-03-03T05:31:27.425Z,100383.31
2023-03-03T05:34:30.100Z,100387.50
2023-03-03T05:37:32.702Z,100378.72
2023-03-03T05:40:35.335Z,100395.22
2023-03-03T05:43:38.022Z,100383.75
2023-03-03T05:46:40.763Z,100382.72
2023-03-03T05:49:43.422Z,100384.25
2023-03-03T05:52:49.140Z,100389.06
2023-03-03T05:55:51.845Z,100389.06
2023-03-03T05:58:54.467Z,100397.53
2023-03-03T06:01:57.626Z,100398.31
2023-03-03T06:05:00.326Z,100401.69
2023-03-03T06:08:03.061Z,100401.22
2023-03-03T06:11:05.804Z,100400.59
2023-03-03T06:14:08.359Z,100407.41
2023-03-03T06:17:11.112Z,100403.13
2023-03-03T06:20:13.686Z,100411.75
2023-03-03T06:23:16.298Z,100414.88
2023-03-03T06:26:19.228Z,100425.28
2023-03-03T06:29:21.867Z,100431.84
2023-03-03T06:32:24.479Z,100415.03
2023-03-03T06:35:27.224Z,100432.19
2023-03-03T06:38:29.992Z,100427.00
2023-03-03T06:41:32.682Z,100419.63
2023-03-03T06:44:36.041Z,100425.81
2023-03-03T06:47:38.722Z,100423.13
2023-03-03T06:50:42.567Z,100417.13
2023-03-03T06:53:45.119Z,100418.13
2023-03-03T06:56:49.638Z,100396.88
2023-03-03T06:59:54.787Z,100425.06
2023-03-03T07:03:02.515Z,100427.91
2023-03-03T07:06:15.134Z,100430.94
2023-03-03T07:09:26.578Z,100416.84
2023-03-03T07:12:35.671Z,100442.78
2023-03-03T07:15:38.188Z,100443.78
2023-03-03T07:18:55.339Z,100447.94
2023-03-03T07:21:57.968Z,100446.75
2023-03-03T07:25:05.033Z,100438.50
2023-03-03T07:28:28.566Z,100417.19
2023-03-03T07:31:40.155Z,100455.41
2023-03-03T07:34:48.595Z,100433.78
2023-03-03T07:37:51.295Z,100457.56
2023-03-03T07:41:03.141Z,100383.03
2023-03-03T07:44:12.764Z,100377.78
2023-03-03T07:47:24.343Z,100450.88
2023-03-03T07:50:27.108Z,100450.94
2023-03-03T07:57:37.494Z,100445.97
2023-03-03T08:00:40.165Z,100446.84
2023-03-03T08:03:45.708Z,100448.50
2023-03-03T08:06:50.317Z,100435.69
2023-03-03T08:09:59.938Z,100445.91
2023-03-03T08:13:09.728Z,100447.94
2023-03-03T08:16:12.273Z,100448.75
2023-03-03T08:19:16.471Z,100454.31
2023-03-03T08:22:33.980Z,100444.91
2023-03-03T08:25:37.053Z,100456.91
2023-03-03T08:28:40.094Z,100453.16
2023-03-03T08:31:42.851Z,100441.13
2023-03-03T08:34:45.521Z,100455.81
2023-03-03T08:37:48.090Z,100454.78
2023-03-03T08:40:50.961Z,100457.50
2023-03-03T08:43:53.518Z,100457.66
2023-03-03T08:46:56.192Z,100430.75
2023-03-03T08:49:58.896Z,100459.69
2023-03-03T08:53:01.536Z,100461.06
2023-03-03T08:56:05.592Z,100466.78
2023-03-03T08:59:08.221Z,100464.09
2023-03-03T09:02:10.951Z,100465.75
2023-03-03T09:05:14.373Z,100445.75
2023-03-03T09:08:17.088Z,100457.19
2023-03-03T09:11:28.334Z,100463.91
2023-03-03T09:14:31.013Z,100462.34
2023-03-03T09:17:35.864Z,100454.66
2023-03-03T09:20:46.900Z,100449.00
2023-03-03T09:23:57.797Z,100458.19
2023-03-03T09:27:00.459Z,100456.19
2023-03-03T09:30:27.175Z,100446.97
2023-03-03T09:33:41.246Z,100468.00
2023-03-03T09:36:44.032Z,100474.31
2023-03-03T09:39:48.736Z,100472.84
2023-03-03T09:43:04.919Z,100448.00
2023-03-03T09:46:26.222Z,100468.03
2023-03-03T09:49:35.146Z,100463.34
2023-03-03T09:52:53.850Z,100468.44
2023-03-03T09:56:22.878Z,100476.56
2023-03-03T09:59:52.498Z,100462.53
2023-03-03T10:03:22.329Z,100463.94
2023-03-03T10:06:27.534Z,100466.53
2023-03-03T10:09:58.270Z,100464.91
2023-03-03T10:13:04.130Z,100471.25
2023-03-03T10:16:06.651Z,100464.00
2023-03-03T10:19:38.810Z,100462.91
2023-03-03T10:23:38.923Z,100463.31
2023-03-03T10:27:12.971Z,100467.41
2023-03-03T10:30:46.215Z,100470.00
2023-03-03T10:34:32.126Z,100470.84
2023-03-03T10:37:46.753Z,100468.94
2023-03-03T10:41:10.943Z,100460.03
2023-03-03T10:44:42.542Z,100455.78
2023-03-03T10:48:04.679Z,100451.16
2023-03-03T10:51:33.389Z,100443.56
2023-03-03T10:54:57.675Z,100454.41
2023-03-03T10:58:28.281Z,100449.59
2023-03-03T11:01:51.190Z,100443.53
2023-03-03T11:05:00.220Z,100448.88
2023-03-03T11:08:12.839Z,100440.56
2023-03-03T11:11:27.579Z,100432.72
2023-03-03T11:14:48.010Z,100430.03
2023-03-03T11:18:04.122Z,100433.78
2023-03-03T11:21:37.581Z,100432.28
2023-03-03T11:25:06.298Z,100415.91
2023-03-03T11:28:25.904Z,100414.69
2023-03-03T11:31:44.916Z,100403.22
2023-03-03T11:35:05.784Z,100414.69
2023-03-03T11:38:14.301Z,100404.41
2023-03-03T11:41:29.388Z,100399.06
2023-03-03T11:44:41.749Z,100403.38
2023-03-03T11:48:13.398Z,100401.06
2023-03-03T11:51:40.592Z,100405.13
2023-03-03T11:55:00.263Z,100390.75
2023-03-03T11:58:21.309Z,100393.88
2023-03-03T12:01:42.043Z,100386.34
2023-03-03T12:04:47.390Z,100388.66
2023-03-03T12:08:15.925Z,100394.81
2023-03-03T12:11:33.268Z,100379.03
2023-03-03T12:14:45.900Z,100382.09
2023-03-03T12:18:28.216Z,100379.13
2023-03-03T12:21:49.597Z,100369.88
2023-03-03T12:25:16.425Z,100374.34
2023-03-03T12:28:36.409Z,100372.75
2023-03-03T12:32:01.025Z,100375.22
2023-03-03T12:35:12.734Z,100372.56
2023-03-03T12:38:15.241Z,100370.44
2023-03-03T12:41:38.947Z,100369.22
2023-03-03T12:44:47.765Z,100364.88
2023-03-03T12:48:03.409Z,100367.47
2023-03-03T12:51:24.749Z,100364.41
2023-03-03T12:54:47.862Z,100364.41
2023-03-03T12:57:56.365Z,100360.72
2023-03-03T13:01:17.260Z,100366.22
2023-03-03T13:04:38.750Z,100340.44
2023-03-03T13:07:56.614Z,100349.31
2023-03-03T13:11:10.705Z,100352.56
2023-03-03T13:14:34.965Z,100350.91
2023-03-03T13:17:42.193Z,100352.34
2023-03-03T13:21:06.707Z,100347.19
2023-03-03T13:25:01.894Z,100356.09
2023-03-03T13:28:17.649Z,100357.22
2023-03-03T13:31:23.458Z,100353.94
2023-03-03T13:34:34.867Z,100343.63
2023-03-03T13:37:43.577Z,100343.97
2023-03-03T13:40:51.206Z,100342.25
2023-03-03T13:44:02.218Z,100319.19
2023-03-03T13:47:21.575Z,100334.41
2023-03-03T13:50:37.563Z,100334.50
2023-03-03T13:53:43.436Z,100339.84
2023-03-03T13:57:06.120Z,100343.38
2023-03-03T14:00:27.579Z,100337.81
2023-03-03T14:03:40.839Z,100332.81
2023-03-03T14:06:48.577Z,100338.84
2023-03-03T14:09:53.278Z,100335.75
2023-03-03T14:13:10.134Z,100335.25
2023-03-03T14:16:38.924Z,100325.84
2023-03-03T14:19:48.421Z,100320.41
2023-03-03T14:22:55.392Z,100316.66
2023-03-03T14:26:00.418Z,100313.88
2023-03-03T14:29:35.346Z,100314.06
2023-03-03T14:32:45.416Z,100312.34
2023-03-03T14:35:57.272Z,100314.38
2023-03-03T14:39:00.652Z,100311.53
2023-03-03T14:42:33.988Z,100312.75
2023-03-03T14:45:38.200Z,100299.34
2023-03-03T14:48:51.961Z,100288.19
2023-03-03T14:52:03.540Z,100301.94
2023-03-03T14:55:35.927Z,100298.72
2023-03-03T14:58:40.755Z,100305.94
2023-03-03T15:01:43.604Z,100281.94
2023-03-03T15:04:47.813Z,100289.91
2023-03-03T15:08:15.042Z,100293.16
2023-03-03T15:11:17.653Z,100290.66
2023-03-03T15:14:23.297Z,100295.19
2023-03-03T15:17:29.691Z,100295.06
2023-03-03T15:20:42.883Z,100290.88
2023-03-03T15:23:49.721Z,100286.28
2023-03-03T15:27:05.664Z,100285.59
2023-03-03T15:30:20.255Z,100282.19
2023-03-03T15:33:39.397Z,100286.56
2023-03-03T15:36:50.118Z,100279.13
2023-03-03T15:40:09.599Z,100278.19
2023-03-03T15:43:29.824Z,100295.81
2023-03-03T15:46:48.215Z,100300.81
2023-03-03T15:49:58.092Z,100282.09
2023-03-03T15:53:00.600Z,100293.09
2023-03-03T15:56:23.501Z,100297.06
2023-03-03T16:00:07.889Z,100300.38
2023-03-03T16:03:48.621Z,100301.94
2023-03-03T16:06:53.922Z,100310.38
2023-03-03T16:10:21.386Z,100311.66
2023-03-03T16:13:53.518Z,100311.47
2023-03-03T16:17:10.876Z,100317.06
2023-03-03T16:20:35.299Z,100318.97
2023-03-03T16:23:51.436Z,100325.94
2023-03-03T16:27:02.478Z,100324.75
2023-03-03T16:30:29.776Z,100329.91
2023-03-03T16:34:04.262Z,100310.72
2023-03-03T16:37:27.636Z,100331.84
2023-03-03T16:40:37.008Z,100330.09
2023-03-03T16:43:59.998Z,100337.16
2023-03-03T16:47:33.178Z,100337.44
2023-03-03T16:50:35.699Z,100342.34
2023-03-03T16:53:59.546Z,100356.34
2023-03-03T16:57:37.150Z,100356.81
2023-03-03T17:00:49.490Z,100359.97
2023-03-03T17:04:15.260Z,100361.75
2023-03-03T17:07:45.949Z,100367.13
2023-03-03T17:11:25.155Z,100376.00
2023-03-03T17:14:33.810Z,100370.66
2023-03-03T17:18:21.406Z,100378.75
2023-03-03T17:21:46.385Z,100390.59
2023-03-03T17:25:09.957Z,100386.16
2023-03-03T17:28:25.231Z,100402.19
2023-03-03T17:32:01.681Z,100399.66
2023-03-03T17:35:06.929Z,100406.44
2023-03-03T17:38:21.674Z,100397.81
2023-03-03T17:41:50.651Z,100394.13
2023-03-03T17:45:17.324Z,100378.84
2023-03-03T17:48:32.374Z,100398.66
2023-03-03T17:51:46.846Z,100399.75
2023-03-03T17:54:55.883Z,100401.22
2023-03-03T17:58:17.352Z,100403.66
2023-03-03T18:01:26.176Z,100401.03
2023-03-03T18:05:10.732Z,100400.84
2023-03-03T18:08:22.135Z,100396.69
2023-03-03T18:11:36.641Z,100400.88
2023-03-03T18:14:58.057Z,100405.41
2023-03-03T18:18:21.238Z,100409.50
2023-03-03T18:21:30.848Z,100411.13
2023-03-03T18:24:39.256Z,100409.88
2023-03-03T18:27:43.874Z,100417.28
2023-03-03T18:31:00.629Z,100420.00
2023-03-03T18:34:25.345Z,100419.94
2023-03-03T18:37:30.939Z,100426.25
2023-03-03T18:40:34.639Z,100415.09
2023-03-03T18:43:43.491Z,100428.09
2023-03-03T18:46:48.614Z,100415.69
2023-03-03T18:50:14.619Z,100411.56
2023-03-03T18:53:19.126Z,100429.00
2023-03-03T18:56:50.475Z,100413.00
2023-03-03T18:59:56.508Z,100426.56
2023-03-03T19:03:00.338Z,100423.81
2023-03-03T19:06:05.943Z,100422.00
2023-03-03T19:09:17.947Z,100425.47
2023-03-03T19:12:42.386Z,100422.44
2023-03-03T19:15:53.719Z,100426.84
2023-03-03T19:18:56.449Z,100437.84
2023-03-03T19:22:27.054Z,100442.56
2023-03-03T19:25:34.125Z,100440.41
2023-03-03T19:28:51.817Z,100441.06
2023-03-03T19:32:28.453Z,100451.66
2023-03-03T19:35:54.934Z,100450.16
2023-03-03T19:39:34.903Z,100458.53
2023-03-03T19:42:49.510Z,100466.41
2023-03-03T19:46:17.972Z,100463.78
2023-03-03T19:49:35.731Z,100467.91
2023-03-03T19:52:49.963Z,100469.03
2023-03-03T19:56:30.096Z,100470.66
2023-03-03T20:00:10.877Z,100470.19
2023-03-03T20:03:38.176Z,100472.13
2023-03-03T20:07:13.835Z,100476.59
2023-03-03T20:10:16.534Z,100480.81
2023-03-03T20:13:32.089Z,100479.03
2023-03-03T20:16:41.689Z,100475.28
2023-03-03T20:19:47.433Z,100487.88
2023-03-03T20:22:52.945Z,100484.59
2023-03-03T20:26:07.900Z,100471.06
2023-03-03T20:29:23.635Z,100485.72
2023-03-03T20:32:30.705Z,100485.75
2023-03-03T20:36:11.360Z,100488.88
2023-03-03T20:39:47.871Z,100484.25
2023-03-03T20:43:11.502Z,100486.84
2023-03-03T20:46:57.284Z,100485.81
2023-03-03T20:50:21.293Z,100484.63
2023-03-03T20:53:34.847Z,100480.44
2023-03-03T20:57:03.304Z,100484.56
2023-03-03T21:00:21.138Z,100473.16
2023-03-03T21:03:35.757Z,100485.13
2023-03-03T21:06:40.991Z,100481.66
2023-03-03T21:09:43.876Z,100483.41
2023-03-03T21:12:46.635Z,100486.28
2023-03-03T21:15:59.576Z,100485.91
2023-03-03T21:19:03.814Z,100490.53
2023-03-03T21:22:06.704Z,100481.97
2023-03-03T21:25:12.908Z,100481.25
2023-03-03T21:28:34.490Z,100476.78
2023-03-03T21:31:48.110Z,100458.75
2023-03-03T21:35:11.402Z,100460.34
2023-03-03T21:38:31.677Z,100468.41
2023-03-03T21:41:53.133Z,100478.56
2023-03-03T21:44:55.842Z,100478.84
2023-03-03T21:48:00.200Z,100456.06
2023-03-03T21:51:04.724Z,100471.19
2023-03-03T21:54:07.327Z,100482.31
2023-03-03T21:57:10.323Z,100481.94
2023-03-03T22:00:13.279Z,100480.66
2023-03-03T22:03:16.905Z,100480.28
2023-03-03T22:06:19.789Z,100468.38
2023-03-03T22:09:22.908Z,100494.84
2023-03-03T22:12:25.725Z,100478.47
2023-03-03T22:15:30.567Z,100492.53
2023-03-03T22:18:33.162Z,100496.84
2023-03-03T22:21:37.350Z,100479.34
2023-03-03T22:24:39.964Z,100492.13
2023-03-03T22:27:42.515Z,100493.25
2023-03-03T22:30:45.132Z,100492.66
2023-03-03T22:33:48.724Z,100504.97
2023-03-03T22:36:51.280Z,100491.88
2023-03-03T22:39:53.895Z,100506.50
2023-03-03T22:42:56.453Z,100500.00
2023-03-03T22:45:59.515Z,100503.78
2023-03-03T22:49:02.108Z,100506.88
2023-03-03T22:52:04.806Z,100513.59
2023-03-03T22:55:07.850Z,100510.81
2023-03-03T22:58:11.916Z,100508.00
2023-03-03T23:01:14.514Z,100504.91
2023-03-03T23:04:17.078Z,100477.72
2023-03-03T23:07:19.684Z,100508.91
2023-03-03T23:10:22.270Z,100493.47
2023-03-03T23:13:27.138Z,100497.72
2023-03-03T23:16:29.884Z,100483.28
2023-03-03T23:19:32.496Z,100486.75
2023-03-03T23:22:35.149Z,100496.09
2023-03-03T23:25:37.720Z,100494.94
2023-03-03T23:28:40.223Z,100494.63
2023-03-03T23:31:42.953Z,100498.06
2023-03-03T23:34:45.584Z,100493.78
2023-03-03T23:37:48.253Z,100499.38
2023-03-03T23:40:50.841Z,100478.38
2023-03-03T23:43:53.465Z,100487.41
2023-03-03T23:46:56.102Z,100495.78
2023-03-03T23:49:58.936Z,100493.97
2023-03-03T23:53:01.464Z,100491.84
2023-03-03T23:56:04.309Z,100493.81
2023-03-03T23:59:06.849Z,100461.66
